createdAt,value
2019-03-20T05:06:33.182Z,13.37
2019-03-20T05:09:02.426Z,11.77
2019-03-20T05:11:31.622Z,15.37
2019-03-20T05:14:00.968Z,15.70
2019-03-20T05:16:30.118Z,12.60
2019-03-20T05:18:59.282Z,12.97
2019-03-20T05:21:28.598Z,15.17
2019-03-20T05:23:58.136Z,12.77
2019-03-20T05:26:28.741Z,12.80
2019-03-20T05:28:57.903Z,13.13
2019-03-20T05:31:27.070Z,13.00
2019-03-20T05:33:56.224Z,13.37
2019-03-20T05:36:25.458Z,14.60
2019-03-20T05:38:54.616Z,17.20
2019-03-20T05:41:23.787Z,13.67
2019-03-20T05:43:53.033Z,13.07
2019-03-20T05:46:22.193Z,12.80
2019-03-20T05:48:51.346Z,15.07
2019-03-20T05:51:20.864Z,13.13
2019-03-20T05:53:50.196Z,12.70
2019-03-20T05:56:22.275Z,13.87
2019-03-20T05:58:51.479Z,11.90
2019-03-20T06:01:20.658Z,13.30
2019-03-20T06:03:49.819Z,13.07
2019-03-20T06:06:19.979Z,15.37
2019-03-20T06:08:49.211Z,11.53
2019-03-20T06:11:18.365Z,12.43
2019-03-20T06:13:47.657Z,13.70
2019-03-20T06:16:16.838Z,14.50
2019-03-20T06:18:45.970Z,13.80
2019-03-20T06:21:15.255Z,15.80
2019-03-20T06:23:46.487Z,12.30
2019-03-20T06:26:15.611Z,17.60
2019-03-20T06:28:44.837Z,13.70
2019-03-20T06:31:13.983Z,14.60
2019-03-20T06:33:43.103Z,15.93
2019-03-20T06:36:12.273Z,15.23
2019-03-20T06:38:41.419Z,12.50
2019-03-20T06:41:10.542Z,14.50
2019-03-20T06:43:39.709Z,14.53
2019-03-20T06:46:08.845Z,11.30
2019-03-20T06:48:38.000Z,14.63
2019-03-20T06:51:07.156Z,14.53
2019-03-20T06:53:36.736Z,12.33
2019-03-20T06:56:06.331Z,12.30
2019-03-20T06:58:35.481Z,13.53
2019-03-20T07:01:27.097Z,12.03
2019-03-20T07:04:28.579Z,13.33
2019-03-20T07:07:17.308Z,13.80
2019-03-20T07:10:17.239Z,15.60
2019-03-20T07:12:46.409Z,15.50
2019-03-20T07:15:15.616Z,14.13
2019-03-20T07:17:45.387Z,12.13
2019-03-20T07:20:16.916Z,12.63
2019-03-20T07:22:46.043Z,12.33
2019-03-20T07:25:17.070Z,13.27
2019-03-20T07:27:46.232Z,12.37
2019-03-20T07:30:15.394Z,15.47
2019-03-20T07:32:44.523Z,13.70
2019-03-20T07:35:13.807Z,15.87
2019-03-20T07:37:43.223Z,9.80
2019-03-20T07:40:12.715Z,12.43
2019-03-20T07:42:41.894Z,10.47
2019-03-20T07:45:11.071Z,12.40
2019-03-20T07:47:40.511Z,11.67
2019-03-20T07:50:09.717Z,10.37
2019-03-20T07:52:39.071Z,12.57
2019-03-20T07:55:08.258Z,11.43
2019-03-20T07:57:38.755Z,9.67
2019-03-20T08:00:13.327Z,9.30
2019-03-20T08:02:42.526Z,8.27
2019-03-20T08:05:11.769Z,10.47
2019-03-20T08:07:40.928Z,11.10
2019-03-20T08:10:12.280Z,8.87
2019-03-20T08:12:41.718Z,8.53
2019-03-20T08:15:12.662Z,10.67
2019-03-20T08:17:41.811Z,9.23
2019-03-20T08:20:12.447Z,8.07
2019-03-20T08:22:41.603Z,8.43
2019-03-20T08:25:10.745Z,8.77
2019-03-20T08:27:39.879Z,7.20
2019-03-20T08:30:10.698Z,7.33
2019-03-20T08:32:39.867Z,8.87
2019-03-20T08:35:09.473Z,10.30
2019-03-20T08:37:39.401Z,9.63
2019-03-20T08:40:09.729Z,10.87
2019-03-20T08:42:39.498Z,13.70
2019-03-20T08:45:10.245Z,9.70
2019-03-20T08:47:39.972Z,7.83
2019-03-20T08:50:16.588Z,10.80
2019-03-20T08:52:45.709Z,6.93
2019-03-20T08:55:15.840Z,10.03
2019-03-20T08:57:47.009Z,9.90
2019-03-20T09:00:19.826Z,6.63
2019-03-20T09:02:52.617Z,9.37
2019-03-20T09:05:24.985Z,6.13
2019-03-20T09:07:54.542Z,6.47
2019-03-20T09:10:23.670Z,7.95
2019-03-20T09:12:52.927Z,7.60
2019-03-20T09:15:22.072Z,9.13
2019-03-20T09:17:53.312Z,6.80
2019-03-20T09:20:22.832Z,7.00
2019-03-20T09:22:52.083Z,5.90
2019-03-20T09:25:21.224Z,6.20
2019-03-20T09:27:50.376Z,7.27
2019-03-20T09:30:20.730Z,5.07
2019-03-20T09:32:50.028Z,6.30
2019-03-20T09:35:19.697Z,6.83
2019-03-20T09:37:52.504Z,8.07
2019-03-20T09:40:23.697Z,5.90
2019-03-20T09:42:56.066Z,5.73
2019-03-20T09:45:25.664Z,6.43
2019-03-20T09:47:57.549Z,5.70
2019-03-20T09:50:26.729Z,8.87
2019-03-20T09:52:57.184Z,5.77
2019-03-20T09:55:29.855Z,7.57
2019-03-20T09:57:59.099Z,7.77
2019-03-20T10:00:28.269Z,6.73
2019-03-20T10:02:57.505Z,6.57
2019-03-20T10:05:26.662Z,4.60
2019-03-20T10:07:56.121Z,4.43
2019-03-20T10:10:25.296Z,5.57
2019-03-20T10:12:57.695Z,6.10
2019-03-20T10:15:27.066Z,6.15
2019-03-20T10:17:56.321Z,7.15
2019-03-20T10:20:26.857Z,6.67
2019-03-20T10:22:56.131Z,5.00
2019-03-20T10:25:25.306Z,5.77
2019-03-20T10:27:54.475Z,6.07
2019-03-20T10:30:24.964Z,7.50
2019-03-20T10:32:54.299Z,6.70
2019-03-20T10:35:23.442Z,6.03
2019-03-20T10:37:52.584Z,9.27
2019-03-20T10:40:22.383Z,7.87
2019-03-20T10:42:53.953Z,6.87
2019-03-20T10:45:23.127Z,4.73
2019-03-20T10:47:53.240Z,8.53
2019-03-20T10:50:23.278Z,4.97
2019-03-20T10:52:52.449Z,5.80
2019-03-20T10:55:22.128Z,8.27
2019-03-20T10:57:51.261Z,7.17
2019-03-20T11:00:21.442Z,6.37
2019-03-20T11:02:50.617Z,6.17
2019-03-20T11:05:20.271Z,6.90
2019-03-20T11:07:49.695Z,5.27
2019-03-20T11:10:20.894Z,7.37
2019-03-20T11:12:50.089Z,6.50
2019-03-20T11:15:19.664Z,5.90
2019-03-20T11:17:48.892Z,7.43
2019-03-20T11:20:18.103Z,6.30
2019-03-20T11:22:48.014Z,6.87
2019-03-20T11:25:19.505Z,5.80
2019-03-20T11:27:48.758Z,7.13
2019-03-20T11:30:23.666Z,7.73
2019-03-20T11:32:52.901Z,7.50
2019-03-20T11:35:22.082Z,7.43
2019-03-20T11:37:51.503Z,9.00
2019-03-20T11:40:25.717Z,6.90
2019-03-20T11:42:55.773Z,8.70
2019-03-20T11:45:26.882Z,7.07
2019-03-20T11:47:57.372Z,6.23
2019-03-20T11:50:34.079Z,7.70
2019-03-20T11:53:03.215Z,7.13
2019-03-20T11:55:32.518Z,7.37
2019-03-20T11:58:02.316Z,6.10
2019-03-20T12:00:33.040Z,5.47
2019-03-20T12:03:02.247Z,5.47
2019-03-20T12:05:31.493Z,5.70
2019-03-20T12:08:01.831Z,8.23
2019-03-20T12:10:31.033Z,6.57
2019-03-20T12:13:00.197Z,6.77
2019-03-20T12:15:29.334Z,6.27
2019-03-20T12:17:58.722Z,6.90
2019-03-20T12:20:28.449Z,7.20
2019-03-20T12:22:59.697Z,5.83
2019-03-20T12:25:29.239Z,6.13
2019-03-20T12:27:58.756Z,5.40
2019-03-20T12:30:29.694Z,6.13
2019-03-20T12:32:59.249Z,5.23
2019-03-20T12:35:29.445Z,5.87
2019-03-20T12:38:00.281Z,6.10
2019-03-20T12:40:30.516Z,4.83
2019-03-20T12:43:00.553Z,5.07
2019-03-20T12:45:35.284Z,6.60
2019-03-20T12:48:05.368Z,8.17
2019-03-20T12:50:34.571Z,5.03
2019-03-20T12:53:04.256Z,7.23
2019-03-20T12:55:33.506Z,4.13
2019-03-20T12:58:04.363Z,6.17
2019-03-20T13:00:40.006Z,7.37
2019-03-20T13:05:45.178Z,7.43
2019-03-20T13:08:16.372Z,5.63
2019-03-20T13:10:45.539Z,6.20
2019-03-20T13:13:16.653Z,7.40
2019-03-20T13:15:45.925Z,7.80
2019-03-20T13:18:19.214Z,7.93
2019-03-20T13:20:50.699Z,6.20
2019-03-20T13:23:22.546Z,6.90
2019-03-20T13:25:51.717Z,5.80
2019-03-20T13:28:22.812Z,5.17
2019-03-20T13:30:55.840Z,8.13
2019-03-20T13:33:26.462Z,9.37
2019-03-20T13:35:57.252Z,7.53
2019-03-20T13:38:27.614Z,7.23
2019-03-20T13:40:56.914Z,8.00
2019-03-20T13:43:26.189Z,5.23
2019-03-20T13:45:56.429Z,5.40
2019-03-20T13:48:26.538Z,5.73
2019-03-20T13:50:55.742Z,5.77
2019-03-20T13:53:25.100Z,8.13
2019-03-20T13:55:54.930Z,6.03
2019-03-20T13:58:24.194Z,7.50
2019-03-20T14:00:53.461Z,6.53
2019-03-20T14:03:22.732Z,5.50
2019-03-20T14:05:51.879Z,6.07
2019-03-20T14:08:21.053Z,7.10
2019-03-20T14:10:50.872Z,6.50
2019-03-20T14:13:23.174Z,5.87
2019-03-20T14:15:52.844Z,6.50
2019-03-20T14:18:22.113Z,8.00
2019-03-20T14:20:55.228Z,4.53
2019-03-20T14:23:24.331Z,6.33
2019-03-20T14:25:58.855Z,7.73
2019-03-20T14:28:29.832Z,5.60
2019-03-20T14:30:59.092Z,6.67
2019-03-20T14:33:29.691Z,6.93
2019-03-20T14:35:58.948Z,6.63
2019-03-20T14:38:30.176Z,6.63
2019-03-20T14:41:00.902Z,6.37
2019-03-20T14:43:31.519Z,6.47
2019-03-20T14:46:01.973Z,5.57
2019-03-20T14:48:31.817Z,7.43
2019-03-20T14:51:01.073Z,7.17
2019-03-20T14:53:30.484Z,7.20
2019-03-20T14:55:59.723Z,8.03
2019-03-20T14:58:29.435Z,7.17
2019-03-20T15:00:58.846Z,6.27
2019-03-20T15:03:28.283Z,6.63
2019-03-20T15:05:57.685Z,6.10
2019-03-20T15:08:27.097Z,7.87
2019-03-20T15:10:56.433Z,5.57
2019-03-20T15:13:25.679Z,6.07
2019-03-20T15:16:02.058Z,6.93
2019-03-20T15:18:31.290Z,5.60
2019-03-20T15:21:00.480Z,6.17
2019-03-20T15:23:32.674Z,5.90
2019-03-20T15:26:02.017Z,5.93
2019-03-20T15:28:31.236Z,5.93
2019-03-20T15:31:09.931Z,7.47
2019-03-20T15:33:41.137Z,5.00
2019-03-20T15:36:12.373Z,6.63
2019-03-20T15:38:41.985Z,7.03
2019-03-20T15:41:11.266Z,7.50
2019-03-20T15:43:46.045Z,6.57
2019-03-20T15:46:17.073Z,7.17
2019-03-20T15:48:48.404Z,8.70
2019-03-20T15:51:17.567Z,9.37
2019-03-20T15:53:46.829Z,6.07
2019-03-20T15:56:16.185Z,5.27
2019-03-20T15:58:45.396Z,6.63
2019-03-20T16:01:14.623Z,9.43
2019-03-20T16:03:43.813Z,9.90
2019-03-20T16:06:13.054Z,7.10
2019-03-20T16:08:42.259Z,5.87
2019-03-20T16:11:12.119Z,7.53
2019-03-20T16:13:41.465Z,10.40
2019-03-20T16:16:10.678Z,8.63
2019-03-20T16:18:39.885Z,4.47
2019-03-20T16:21:09.190Z,8.57
2019-03-20T16:23:39.528Z,10.10
2019-03-20T16:26:08.682Z,7.03
2019-03-20T16:28:37.939Z,6.97
2019-03-20T16:31:07.140Z,6.20
2019-03-20T16:33:36.322Z,7.57
2019-03-20T16:36:05.908Z,6.87
2019-03-20T16:38:35.068Z,6.83
2019-03-20T16:41:04.280Z,7.50
2019-03-20T16:43:33.516Z,9.40
2019-03-20T16:46:02.656Z,5.53
2019-03-20T16:48:31.833Z,11.03
2019-03-20T16:51:00.969Z,8.97
2019-03-20T16:53:30.455Z,8.80
2019-03-20T16:55:59.607Z,7.53
2019-03-20T16:58:28.778Z,8.47
2019-03-20T17:00:57.948Z,7.07
2019-03-20T17:03:27.079Z,6.93
2019-03-20T17:05:56.505Z,7.67
2019-03-20T17:08:25.770Z,8.17
2019-03-20T17:10:55.145Z,7.33
2019-03-20T17:13:24.308Z,8.13
2019-03-20T17:15:53.674Z,10.17
2019-03-20T17:18:23.024Z,8.43
2019-03-20T17:20:52.277Z,6.63
2019-03-20T17:23:24.003Z,5.43
2019-03-20T17:25:53.532Z,11.20
2019-03-20T17:28:25.419Z,6.23
2019-03-20T17:30:54.580Z,10.43
2019-03-20T17:33:23.719Z,8.57
2019-03-20T17:35:52.873Z,7.77
2019-03-20T17:38:22.115Z,9.43
2019-03-20T17:40:54.084Z,10.47
2019-03-20T17:43:23.233Z,11.43
2019-03-20T17:45:53.940Z,11.00
2019-03-20T17:48:23.130Z,9.77
2019-03-20T17:50:52.319Z,11.10
2019-03-20T17:53:21.513Z,12.90
2019-03-20T17:55:51.070Z,10.53
2019-03-20T17:58:20.245Z,11.03
2019-03-20T18:00:50.546Z,12.80
2019-03-20T18:03:19.930Z,11.43
2019-03-20T18:05:50.788Z,11.50
2019-03-20T18:08:22.750Z,13.23
2019-03-20T18:10:51.902Z,11.47
2019-03-20T18:13:21.119Z,10.03
2019-03-20T18:15:51.291Z,13.37
2019-03-20T18:18:20.545Z,11.20
2019-03-20T18:20:49.920Z,9.90
2019-03-20T18:23:28.072Z,9.77
2019-03-20T18:25:54.881Z,19.60
2019-03-20T18:28:24.112Z,10.47
2019-03-20T18:30:53.254Z,9.90
2019-03-20T18:33:22.411Z,14.40
2019-03-20T18:35:53.980Z,11.87
2019-03-20T18:38:23.132Z,11.43
2019-03-20T18:40:52.509Z,12.40
2019-03-20T18:43:22.510Z,9.97
2019-03-20T18:45:52.437Z,12.47
2019-03-20T18:48:22.206Z,15.37
2019-03-20T18:50:51.349Z,13.10
2019-03-20T18:53:23.467Z,14.73
2019-03-20T18:55:52.709Z,14.87
2019-03-20T18:58:21.883Z,15.50
2019-03-20T19:00:51.230Z,17.97
2019-03-20T19:03:20.782Z,24.77
2019-03-20T19:06:03.071Z,19.03
2019-03-20T19:08:32.326Z,16.73
2019-03-20T19:11:01.763Z,11.93
2019-03-20T19:13:34.098Z,12.50
2019-03-20T19:16:03.383Z,14.30
2019-03-20T19:18:33.870Z,13.00
2019-03-20T19:21:03.182Z,14.20
2019-03-20T19:23:32.445Z,12.67
2019-03-20T19:26:01.605Z,15.90
2019-03-20T19:28:30.772Z,13.00
2019-03-20T19:31:00.031Z,12.33
2019-03-20T19:33:31.250Z,13.70
2019-03-20T19:36:00.420Z,13.20
2019-03-20T19:38:34.939Z,13.83
2019-03-20T19:41:00.709Z,12.87
2019-03-20T19:43:30.047Z,11.87
2019-03-20T19:45:59.220Z,13.73
2019-03-20T19:48:29.554Z,13.53
2019-03-20T19:50:59.259Z,15.37
2019-03-20T19:53:28.740Z,14.83
2019-03-20T19:55:57.903Z,14.40
2019-03-20T19:58:27.544Z,14.10
2019-03-20T20:00:57.377Z,13.90
2019-03-20T20:03:26.860Z,17.40
2019-03-20T20:05:56.227Z,16.63
2019-03-20T20:08:25.511Z,19.63
2019-03-20T20:10:54.684Z,17.50
2019-03-20T20:13:23.855Z,17.70
2019-03-20T20:15:53.117Z,16.80
2019-03-20T20:18:22.365Z,13.60
2019-03-20T20:20:51.644Z,17.00
2019-03-20T20:23:20.887Z,20.43
2019-03-20T20:25:50.110Z,21.23
2019-03-20T20:28:19.380Z,25.03
2019-03-20T20:30:48.606Z,24.50
2019-03-20T20:33:18.063Z,22.60
2019-03-20T20:35:47.423Z,20.97
2019-03-20T20:38:16.566Z,24.53
2019-03-20T20:40:45.734Z,23.60
2019-03-20T20:43:14.989Z,22.80
2019-03-20T20:45:44.308Z,40.50
2019-03-20T20:48:13.643Z,48.50
2019-03-20T20:50:42.858Z,63.03
2019-03-20T20:53:12.008Z,50.40
2019-03-20T20:55:41.420Z,50.10
2019-03-20T20:58:10.757Z,45.17
2019-03-20T21:00:40.066Z,28.93
2019-03-20T21:03:09.343Z,20.20
2019-03-20T21:05:38.572Z,16.07
2019-03-20T21:08:07.876Z,17.43
2019-03-20T21:10:37.628Z,15.93
2019-03-20T21:13:06.821Z,12.77
2019-03-20T21:15:48.485Z,13.43
2019-03-20T21:19:04.883Z,11.90
2019-03-20T21:22:08.359Z,14.10
2019-03-20T21:24:42.776Z,15.43
2019-03-20T21:27:50.172Z,14.73
2019-03-20T21:30:42.836Z,12.27
2019-03-20T21:33:25.875Z,9.20
2019-03-20T21:36:41.111Z,15.03
2019-03-20T21:39:10.811Z,14.80
2019-03-20T21:42:27.275Z,16.37
2019-03-20T21:45:26.576Z,10.90
2019-03-20T21:47:56.494Z,13.33
2019-03-20T21:50:54.182Z,14.60
2019-03-20T21:53:34.461Z,12.50
2019-03-20T21:56:24.593Z,11.90
2019-03-20T21:59:04.936Z,13.10
2019-03-20T22:02:13.846Z,14.83
2019-03-20T22:04:43.520Z,11.80
2019-03-20T22:07:13.708Z,13.37
2019-03-20T22:10:35.702Z,13.77
2019-03-20T22:13:19.019Z,14.30
2019-03-20T22:16:31.864Z,12.40
2019-03-20T22:19:41.873Z,16.30
2019-03-20T22:22:44.201Z,11.80
2019-03-20T22:25:59.327Z,13.17
2019-03-20T22:28:47.297Z,12.33
